sensor_id;sensor_type;location;lat;lon;timestamp;pressure;altitude;pressure_sealevel;temperature;humidity
63088;BME280;49173;43.164;27.786;2023-09-19T00:00:23;100883.16;;;18.61;66.90
63088;BME280;49173;43.164;27.786;2023-09-19T00:02:56;100873.50;;;18.57;66.83
63088;BME280;49173;43.164;27.786;2023-09-19T00:05:29;100864.84;;;18.52;67.03
63088;BME280;49173;43.164;27.786;2023-09-19T00:07:56;100872.16;;;18.51;67.08
63088;BME280;49173;43.164;27.786;2023-09-19T00:10:26;100864.13;;;18.50;67.15
63088;BME280;49173;43.164;27.786;2023-09-19T00:12:53;100868.56;;;18.51;67.14
63088;BME280;49173;43.164;27.786;2023-09-19T00:15:22;100861.75;;;18.45;67.15
63088;BME280;49173;43.164;27.786;2023-09-19T00:17:48;100865.59;;;18.43;67.19
63088;BME280;49173;43.164;27.786;2023-09-19T00:20:14;100870.03;;;18.44;67.32
63088;BME280;49173;43.164;27.786;2023-09-19T00:22:44;100861.16;;;18.42;67.16
63088;BME280;49173;43.164;27.786;2023-09-19T00:25:10;100868.69;;;18.38;67.16
63088;BME280;49173;43.164;27.786;2023-09-19T00:27:38;100858.94;;;18.35;67.21
63088;BME280;49173;43.164;27.786;2023-09-19T00:30:08;100864.72;;;18.31;67.39
63088;BME280;49173;43.164;27.786;2023-09-19T00:32:55;100856.69;;;18.29;67.40
63088;BME280;49173;43.164;27.786;2023-09-19T00:35:21;100858.69;;;18.27;67.69
63088;BME280;49173;43.164;27.786;2023-09-19T00:37:50;100860.66;;;18.25;68.11
63088;BME280;49173;43.164;27.786;2023-09-19T00:40:16;100858.91;;;18.24;68.04
63088;BME280;49173;43.164;27.786;2023-09-19T00:42:43;100859.91;;;18.23;68.64
63088;BME280;49173;43.164;27.786;2023-09-19T00:45:10;100858.16;;;18.22;68.15
63088;BME280;49173;43.164;27.786;2023-09-19T00:47:50;100867.91;;;18.25;68.18
63088;BME280;49173;43.164;27.786;2023-09-19T00:50:18;100856.44;;;18.21;68.26
63088;BME280;49173;43.164;27.786;2023-09-19T00:52:46;100860.16;;;18.20;68.26
63088;BME280;49173;43.164;27.786;2023-09-19T00:55:14;100850.28;;;18.19;68.18
63088;BME280;49173;43.164;27.786;2023-09-19T00:57:41;100859.75;;;18.14;68.46
63088;BME280;49173;43.164;27.786;2023-09-19T01:00:09;100860.84;;;18.11;68.40
63088;BME280;49173;43.164;27.786;2023-09-19T01:02:42;100860.84;;;18.11;68.38
63088;BME280;49173;43.164;27.786;2023-09-19T01:05:11;100862.84;;;18.09;68.64
63088;BME280;49173;43.164;27.786;2023-09-19T01:07:40;100863.69;;;18.09;68.72
63088;BME280;49173;43.164;27.786;2023-09-19T01:10:08;100856.66;;;18.07;68.74
63088;BME280;49173;43.164;27.786;2023-09-19T01:17:56;100852.69;;;18.00;68.82
63088;BME280;49173;43.164;27.786;2023-09-19T01:20:45;100857.41;;;17.98;68.74
63088;BME280;49173;43.164;27.786;2023-09-19T01:23:26;100849.59;;;17.93;69.14
63088;BME280;49173;43.164;27.786;2023-09-19T01:26:07;100847.13;;;17.90;69.35
63088;BME280;49173;43.164;27.786;2023-09-19T01:28:51;100848.09;;;17.89;69.35
63088;BME280;49173;43.164;27.786;2023-09-19T01:31:21;100840.31;;;17.84;69.68
63088;BME280;49173;43.164;27.786;2023-09-19T01:33:56;100844.75;;;17.86;69.64
63088;BME280;49173;43.164;27.786;2023-09-19T01:36:23;100843.66;;;17.88;69.59
63088;BME280;49173;43.164;27.786;2023-09-19T01:38:50;100840.06;;;17.88;69.67
63088;BME280;49173;43.164;27.786;2023-09-19T01:41:24;100843.91;;;17.85;69.87
63088;BME280;49173;43.164;27.786;2023-09-19T01:43:51;100851.19;;;17.84;69.99
63088;BME280;49173;43.164;27.786;2023-09-19T01:46:24;100852.16;;;17.83;70.06
63088;BME280;49173;43.164;27.786;2023-09-19T01:49:04;100845.97;;;17.81;70.03
63088;BME280;49173;43.164;27.786;2023-09-19T01:52:02;100856.09;;;17.79;70.29
63088;BME280;49173;43.164;27.786;2023-09-19T01:54:34;100856.34;;;17.76;70.22
63088;BME280;49173;43.164;27.786;2023-09-19T01:57:10;100852.84;;;17.74;70.29
63088;BME280;49173;43.164;27.786;2023-09-19T01:59:52;100847.69;;;17.71;69.99
63088;BME280;49173;43.164;27.786;2023-09-19T02:02:20;100847.69;;;17.71;70.14
63088;BME280;49173;43.164;27.786;2023-09-19T02:04:48;100846.81;;;17.71;70.37
63088;BME280;49173;43.164;27.786;2023-09-19T02:07:16;100851.44;;;17.69;70.55
63088;BME280;49173;43.164;27.786;2023-09-19T02:09:42;100852.69;;;17.65;70.59
63088;BME280;49173;43.164;27.786;2023-09-19T02:12:11;100848.97;;;17.66;70.19
63088;BME280;49173;43.164;27.786;2023-09-19T02:14:37;100852.81;;;17.63;70.66
63088;BME280;49173;43.164;27.786;2023-09-19T02:17:03;100850.31;;;17.60;70.40
63088;BME280;49173;43.164;27.786;2023-09-19T02:19:33;100851.28;;;17.59;70.68
63088;BME280;49173;43.164;27.786;2023-09-19T02:22:00;100843.16;;;17.59;70.85
63088;BME280;49173;43.164;27.786;2023-09-19T02:24:29;100846.84;;;17.58;70.71
63088;BME280;49173;43.164;27.786;2023-09-19T02:26:54;100843.91;;;17.61;70.68
63088;BME280;49173;43.164;27.786;2023-09-19T02:29:21;100841.69;;;17.55;70.78
63088;BME280;49173;43.164;27.786;2023-09-19T02:31:47;100839.06;;;17.53;71.09
63088;BME280;49173;43.164;27.786;2023-09-19T02:34:13;100843.63;;;17.53;71.15
63088;BME280;49173;43.164;27.786;2023-09-19T02:36:42;100840.16;;;17.51;71.21
63088;BME280;49173;43.164;27.786;2023-09-19T02:39:09;100840.16;;;17.51;70.97
63088;BME280;49173;43.164;27.786;2023-09-19T02:41:37;100840.41;;;17.48;71.20
63088;BME280;49173;43.164;27.786;2023-09-19T02:44:03;100836.94;;;17.46;71.48
63088;BME280;49173;43.164;27.786;2023-09-19T02:46:34;100838.66;;;17.47;71.67
63088;BME280;49173;43.164;27.786;2023-09-19T02:49:02;100835.06;;;17.46;71.54
63088;BME280;49173;43.164;27.786;2023-09-19T02:51:32;100831.75;;;17.43;71.92
63088;BME280;49173;43.164;27.786;2023-09-19T02:54:01;100830.03;;;17.42;71.96
63088;BME280;49173;43.164;27.786;2023-09-19T02:56:28;100832.81;;;17.40;72.01
63088;BME280;49173;43.164;27.786;2023-09-19T02:58:56;100830.22;;;17.39;71.99
63088;BME280;49173;43.164;27.786;2023-09-19T03:01:23;100834.78;;;17.38;72.07
63088;BME280;49173;43.164;27.786;2023-09-19T03:03:49;100824.06;;;17.37;71.95
63088;BME280;49173;43.164;27.786;2023-09-19T03:06:15;100823.34;;;17.35;71.98
63088;BME280;49173;43.164;27.786;2023-09-19T03:08:41;100832.66;;;17.30;71.89
63088;BME280;49173;43.164;27.786;2023-09-19T03:11:09;100822.16;;;17.26;72.08
63088;BME280;49173;43.164;27.786;2023-09-19T03:13:37;100826.63;;;17.27;72.32
63088;BME280;49173;43.164;27.786;2023-09-19T03:16:06;100825.72;;;17.26;72.41
63088;BME280;49173;43.164;27.786;2023-09-19T03:18:34;100835.09;;;17.22;72.34
63088;BME280;49173;43.164;27.786;2023-09-19T03:21:00;100825.13;;;17.23;72.25
63088;BME280;49173;43.164;27.786;2023-09-19T03:23:27;100829.69;;;17.22;72.31
63088;BME280;49173;43.164;27.786;2023-09-19T03:25:56;100828.94;;;17.20;72.52
63088;BME280;49173;43.164;27.786;2023-09-19T03:28:23;100831.84;;;17.17;73.04
63088;BME280;49173;43.164;27.786;2023-09-19T03:31:07;100830.88;;;17.18;72.97
63088;BME280;49173;43.164;27.786;2023-09-19T03:33:32;100834.44;;;17.19;72.52
63088;BME280;49173;43.164;27.786;2023-09-19T03:36:00;100835.31;;;17.19;73.01
63088;BME280;49173;43.164;27.786;2023-09-19T03:38:27;100846.16;;;17.19;72.86
63088;BME280;49173;43.164;27.786;2023-09-19T03:40:54;100839.47;;;17.12;73.38
63088;BME280;49173;43.164;27.786;2023-09-19T03:43:20;100836.88;;;17.11;73.38
63088;BME280;49173;43.164;27.786;2023-09-19T03:45:45;100840.56;;;17.10;73.49
63088;BME280;49173;43.164;27.786;2023-09-19T03:48:12;100836.13;;;17.09;73.41
63088;BME280;49173;43.164;27.786;2023-09-19T03:50:38;100840.44;;;17.11;73.23
63088;BME280;49173;43.164;27.786;2023-09-19T03:53:04;100837.00;;;17.09;73.46
63088;BME280;49173;43.164;27.786;2023-09-19T03:55:33;100838.97;;;17.07;73.75
63088;BME280;49173;43.164;27.786;2023-09-19T03:58:04;100840.69;;;17.08;73.98
63088;BME280;49173;43.164;27.786;2023-09-19T04:00:30;100837.88;;;17.10;73.92
63088;BME280;49173;43.164;27.786;2023-09-19T04:02:56;100839.09;;;17.06;74.09
63088;BME280;49173;43.164;27.786;2023-09-19T04:05:23;100836.59;;;17.02;74.24
63088;BME280;49173;43.164;27.786;2023-09-19T04:07:49;100828.31;;;17.04;74.69
63088;BME280;49173;43.164;27.786;2023-09-19T04:10:16;100833.75;;;17.04;74.40
63088;BME280;49173;43.164;27.786;2023-09-19T04:12:55;100820.31;;;17.02;74.52
63088;BME280;49173;43.164;27.786;2023-09-19T04:15:21;100829.19;;;17.05;74.61
63088;BME280;49173;43.164;27.786;2023-09-19T04:17:50;100818.13;;;17.08;74.46
63088;BME280;49173;43.164;27.786;2023-09-19T04:20:20;100808.16;;;17.08;74.46
63088;BME280;49173;43.164;27.786;2023-09-19T04:22:48;100812.25;;;17.14;74.72
63088;BME280;49173;43.164;27.786;2023-09-19T04:25:14;100815.53;;;17.30;74.62
63088;BME280;49173;43.164;27.786;2023-09-19T04:27:40;100814.22;;;17.47;73.79
63088;BME280;49173;43.164;27.786;2023-09-19T04:30:07;100819.72;;;17.58;73.49
63088;BME280;49173;43.164;27.786;2023-09-19T04:32:40;100819.66;;;17.71;73.02
63088;BME280;49173;43.164;27.786;2023-09-19T04:35:10;100822.69;;;17.90;72.54
63088;BME280;49173;43.164;27.786;2023-09-19T04:37:40;100824.81;;;18.31;72.16
63088;BME280;49173;43.164;27.786;2023-09-19T04:40:08;100822.84;;;18.89;70.22
63088;BME280;49173;43.164;27.786;2023-09-19T04:42:39;100821.47;;;19.38;68.46
63088;BME280;49173;43.164;27.786;2023-09-19T04:45:06;100820.03;;;19.66;66.64
63088;BME280;49173;43.164;27.786;2023-09-19T04:47:34;100819.91;;;19.89;65.63
63088;BME280;49173;43.164;27.786;2023-09-19T04:50:00;100820.22;;;19.95;65.48
63088;BME280;49173;43.164;27.786;2023-09-19T04:52:26;100820.28;;;19.84;65.93
63088;BME280;49173;43.164;27.786;2023-09-19T04:54:51;100821.47;;;19.70;66.24
63088;BME280;49173;43.164;27.786;2023-09-19T04:57:18;100816.97;;;19.60;66.67
63088;BME280;49173;43.164;27.786;2023-09-19T04:59:43;100808.66;;;19.50;66.74
63088;BME280;49173;43.164;27.786;2023-09-19T05:02:10;100804.25;;;19.38;66.70
63088;BME280;49173;43.164;27.786;2023-09-19T05:04:37;100806.19;;;19.26;67.21
63088;BME280;49173;43.164;27.786;2023-09-19T05:07:04;100807.69;;;19.19;67.55
63088;BME280;49173;43.164;27.786;2023-09-19T05:09:30;100803.59;;;19.25;67.73
63088;BME280;49173;43.164;27.786;2023-09-19T05:11:55;100795.63;;;19.33;68.20
63088;BME280;49173;43.164;27.786;2023-09-19T05:14:22;100798.81;;;19.38;68.29
63088;BME280;49173;43.164;27.786;2023-09-19T05:16:48;100804.34;;;19.47;68.10
63088;BME280;49173;43.164;27.786;2023-09-19T05:19:14;100803.84;;;19.54;68.22
63088;BME280;49173;43.164;27.786;2023-09-19T05:21:39;100800.84;;;19.57;68.15
63088;BME280;49173;43.164;27.786;2023-09-19T05:24:05;100796.91;;;19.61;68.44
63088;BME280;49173;43.164;27.786;2023-09-19T05:26:34;100798.81;;;19.70;67.77
63088;BME280;49173;43.164;27.786;2023-09-19T05:29:00;100800.50;;;19.82;67.57
63088;BME280;49173;43.164;27.786;2023-09-19T05:31:27;100803.88;;;19.95;67.34
63088;BME280;49173;43.164;27.786;2023-09-19T05:33:53;100797.34;;;20.08;66.71
63088;BME280;49173;43.164;27.786;2023-09-19T05:36:20;100802.84;;;20.17;66.42
63088;BME280;49173;43.164;27.786;2023-09-19T05:38:46;100801.19;;;20.26;65.90
63088;BME280;49173;43.164;27.786;2023-09-19T05:41:15;100807.09;;;20.31;65.46
63088;BME280;49173;43.164;27.786;2023-09-19T05:43:43;100806.66;;;20.36;65.47
63088;BME280;49173;43.164;27.786;2023-09-19T05:46:09;100806.25;;;20.40;65.01
63088;BME280;49173;43.164;27.786;2023-09-19T05:48:35;100793.97;;;20.46;64.89
63088;BME280;49173;43.164;27.786;2023-09-19T05:51:01;100798.03;;;20.51;64.46
63088;BME280;49173;43.164;27.786;2023-09-19T05:53:27;100792.75;;;20.60;64.57
63088;BME280;49173;43.164;27.786;2023-09-19T05:55:54;100795.91;;;20.65;64.42
63088;BME280;49173;43.164;27.786;2023-09-19T05:58:24;100799.06;;;20.70;63.62
63088;BME280;49173;43.164;27.786;2023-09-19T06:00:50;100800.41;;;20.75;63.12
63088;BME280;49173;43.164;27.786;2023-09-19T06:03:19;100803.56;;;20.80;63.43
63088;BME280;49173;43.164;27.786;2023-09-19T06:05:49;100805.75;;;20.87;63.53
63088;BME280;49173;43.164;27.786;2023-09-19T06:08:18;100810.63;;;20.93;63.61
63088;BME280;49173;43.164;27.786;2023-09-19T06:10:47;100812.69;;;21.00;63.23
63088;BME280;49173;43.164;27.786;2023-09-19T06:13:18;100814.56;;;21.09;62.97
63088;BME280;49173;43.164;27.786;2023-09-19T06:15:46;100820.16;;;21.18;62.30
63088;BME280;49173;43.164;27.786;2023-09-19T06:18:16;100820.16;;;21.27;62.53
63088;BME280;49173;43.164;27.786;2023-09-19T06:20:50;100820.22;;;21.37;62.45
63088;BME280;49173;43.164;27.786;2023-09-19T06:23:25;100819.34;;;21.46;62.03
63088;BME280;49173;43.164;27.786;2023-09-19T06:25:58;100821.97;;;21.57;61.45
63088;BME280;49173;43.164;27.786;2023-09-19T06:28:28;100817.34;;;21.67;61.48
63088;BME280;49173;43.164;27.786;2023-09-19T06:30:57;100827.38;;;21.77;61.16
63088;BME280;49173;43.164;27.786;2023-09-19T06:33:29;100827.25;;;21.88;60.79
63088;BME280;49173;43.164;27.786;2023-09-19T06:36:00;100828.38;;;21.95;60.83
63088;BME280;49173;43.164;27.786;2023-09-19T06:38:32;100830.22;;;22.04;60.24
63088;BME280;49173;43.164;27.786;2023-09-19T06:41:06;100827.38;;;22.15;59.72
63088;BME280;49173;43.164;27.786;2023-09-19T06:43:37;100826.63;;;22.23;59.64
63088;BME280;49173;43.164;27.786;2023-09-19T06:46:07;100827.88;;;22.38;59.11
63088;BME280;49173;43.164;27.786;2023-09-19T06:48:42;100830.44;;;22.50;58.58
63088;BME280;49173;43.164;27.786;2023-09-19T06:51:16;100827.34;;;22.62;58.14
63088;BME280;49173;43.164;27.786;2023-09-19T06:53:46;100817.66;;;22.68;57.97
63088;BME280;49173;43.164;27.786;2023-09-19T06:56:15;100823.72;;;22.71;58.23
63088;BME280;49173;43.164;27.786;2023-09-19T06:58:47;100828.16;;;22.72;57.74
63088;BME280;49173;43.164;27.786;2023-09-19T07:01:18;100832.06;;;22.70;57.83
63088;BME280;49173;43.164;27.786;2023-09-19T07:03:47;100823.13;;;22.68;58.25
63088;BME280;49173;43.164;27.786;2023-09-19T07:06:14;100810.31;;;22.68;58.18
63088;BME280;49173;43.164;27.786;2023-09-19T07:08:43;100825.00;;;22.67;57.58
63088;BME280;49173;43.164;27.786;2023-09-19T07:11:17;100833.22;;;22.67;58.14
63088;BME280;49173;43.164;27.786;2023-09-19T07:13:43;100831.41;;;22.58;58.06
63088;BME280;49173;43.164;27.786;2023-09-19T07:16:14;100823.94;;;22.51;58.76
63088;BME280;49173;43.164;27.786;2023-09-19T07:18:59;100822.34;;;22.48;58.67
63088;BME280;49173;43.164;27.786;2023-09-19T07:21:28;100820.25;;;22.42;58.66
63088;BME280;49173;43.164;27.786;2023-09-19T07:24:13;100824.88;;;22.32;58.87
63088;BME280;49173;43.164;27.786;2023-09-19T07:26:42;100816.53;;;22.24;59.49
63088;BME280;49173;43.164;27.786;2023-09-19T07:29:12;100827.78;;;22.20;59.62
63088;BME280;49173;43.164;27.786;2023-09-19T07:31:56;100817.84;;;22.19;59.63
63088;BME280;49173;43.164;27.786;2023-09-19T07:34:22;100815.09;;;22.19;59.71
63088;BME280;49173;43.164;27.786;2023-09-19T07:36:56;100828.66;;;22.11;59.55
63088;BME280;49173;43.164;27.786;2023-09-19T07:39:22;100829.22;;;22.05;59.64
63088;BME280;49173;43.164;27.786;2023-09-19T07:41:52;100824.47;;;22.07;60.01
63088;BME280;49173;43.164;27.786;2023-09-19T07:44:19;100823.91;;;22.04;60.02
63088;BME280;49173;43.164;27.786;2023-09-19T07:46:49;100812.41;;;22.10;59.75
63088;BME280;49173;43.164;27.786;2023-09-19T07:49:20;100808.94;;;22.17;60.06
63088;BME280;49173;43.164;27.786;2023-09-19T07:51:49;100809.34;;;22.23;59.71
63088;BME280;49173;43.164;27.786;2023-09-19T07:54:20;100810.66;;;22.18;59.69
63088;BME280;49173;43.164;27.786;2023-09-19T07:56:50;100795.69;;;22.13;59.28
63088;BME280;49173;43.164;27.786;2023-09-19T07:59:20;100802.06;;;22.13;60.01
63088;BME280;49173;43.164;27.786;2023-09-19T08:01:49;100801.47;;;22.10;59.90
63088;BME280;49173;43.164;27.786;2023-09-19T08:04:23;100805.22;;;22.09;59.98
63088;BME280;49173;43.164;27.786;2023-09-19T08:06:54;100797.03;;;22.09;60.14
63088;BME280;49173;43.164;27.786;2023-09-19T08:09:28;100799.59;;;22.10;59.63
63088;BME280;49173;43.164;27.786;2023-09-19T08:11:57;100793.13;;;22.11;59.43
63088;BME280;49173;43.164;27.786;2023-09-19T08:14:27;100799.44;;;22.12;59.63
63088;BME280;49173;43.164;27.786;2023-09-19T08:17:01;100794.84;;;22.12;59.31
63088;BME280;49173;43.164;27.786;2023-09-19T08:19:33;100790.53;;;22.10;59.36
63088;BME280;49173;43.164;27.786;2023-09-19T08:22:02;100791.41;;;22.10;59.12
63088;BME280;49173;43.164;27.786;2023-09-19T08:24:32;100785.22;;;22.08;59.48
63088;BME280;49173;43.164;27.786;2023-09-19T08:27:04;100788.22;;;22.05;58.53
63088;BME280;49173;43.164;27.786;2023-09-19T08:29:36;100779.03;;;22.06;58.32
63088;BME280;49173;43.164;27.786;2023-09-19T08:32:05;100776.72;;;22.11;58.70
63088;BME280;49173;43.164;27.786;2023-09-19T08:34:37;100776.13;;;22.17;58.26
63088;BME280;49173;43.164;27.786;2023-09-19T08:37:04;100768.34;;;22.23;57.91
63088;BME280;49173;43.164;27.786;2023-09-19T08:39:33;100767.16;;;22.35;57.81
63088;BME280;49173;43.164;27.786;2023-09-19T08:42:10;100761.88;;;22.51;57.41
63088;BME280;49173;43.164;27.786;2023-09-19T08:44:42;100764.28;;;22.64;56.73
63088;BME280;49173;43.164;27.786;2023-09-19T08:47:16;100760.28;;;22.76;55.98
63088;BME280;49173;43.164;27.786;2023-09-19T08:50:09;100753.34;;;22.91;57.18
63088;BME280;49173;43.164;27.786;2023-09-19T08:52:43;100750.34;;;23.02;53.80
63088;BME280;49173;43.164;27.786;2023-09-19T08:55:19;100749.97;;;23.15;54.89
63088;BME280;49173;43.164;27.786;2023-09-19T08:57:52;100758.34;;;23.32;53.87
63088;BME280;49173;43.164;27.786;2023-09-19T09:00:31;100745.44;;;23.42;53.15
63088;BME280;49173;43.164;27.786;2023-09-19T09:03:01;100746.34;;;23.50;51.96
63088;BME280;49173;43.164;27.786;2023-09-19T09:05:31;100748.47;;;23.56;53.58
63088;BME280;49173;43.164;27.786;2023-09-19T09:07:58;100747.03;;;23.52;53.45
63088;BME280;49173;43.164;27.786;2023-09-19T09:10:28;100740.66;;;23.44;53.35
63088;BME280;49173;43.164;27.786;2023-09-19T09:12:58;100733.75;;;23.40;53.45
63088;BME280;49173;43.164;27.786;2023-09-19T09:15:34;100734.78;;;23.39;53.29
63088;BME280;49173;43.164;27.786;2023-09-19T09:18:10;100729.28;;;23.39;53.02
63088;BME280;49173;43.164;27.786;2023-09-19T09:20:40;100724.31;;;23.34;52.38
63088;BME280;49173;43.164;27.786;2023-09-19T09:23:09;100724.16;;;23.36;52.46
63088;BME280;49173;43.164;27.786;2023-09-19T09:25:56;100718.44;;;23.47;53.76
63088;BME280;49173;43.164;27.786;2023-09-19T09:28:27;100722.94;;;23.56;53.53
63088;BME280;49173;43.164;27.786;2023-09-19T09:31:04;100720.81;;;23.68;51.32
63088;BME280;49173;43.164;27.786;2023-09-19T09:33:39;100722.84;;;23.83;51.05
63088;BME280;49173;43.164;27.786;2023-09-19T09:36:10;100722.88;;;23.92;50.18
63088;BME280;49173;43.164;27.786;2023-09-19T09:38:59;100709.56;;;23.97;49.76
63088;BME280;49173;43.164;27.786;2023-09-19T09:41:44;100715.25;;;24.03;48.95
63088;BME280;49173;43.164;27.786;2023-09-19T09:44:20;100712.84;;;24.08;49.16
63088;BME280;49173;43.164;27.786;2023-09-19T09:46:50;100707.41;;;24.17;48.02
63088;BME280;49173;43.164;27.786;2023-09-19T09:49:50;100706.59;;;24.24;48.35
63088;BME280;49173;43.164;27.786;2023-09-19T09:52:23;100711.75;;;24.27;48.08
63088;BME280;49173;43.164;27.786;2023-09-19T09:55:02;100698.53;;;24.23;48.99
63088;BME280;49173;43.164;27.786;2023-09-19T09:57:39;100703.16;;;24.22;48.60
63088;BME280;49173;43.164;27.786;2023-09-19T10:00:10;100695.78;;;24.23;49.23
63088;BME280;49173;43.164;27.786;2023-09-19T10:02:42;100702.50;;;24.28;49.89
63088;BME280;49173;43.164;27.786;2023-09-19T10:05:20;100697.00;;;24.28;48.04
63088;BME280;49173;43.164;27.786;2023-09-19T10:07:51;100696.03;;;24.37;47.98
63088;BME280;49173;43.164;27.786;2023-09-19T10:10:44;100685.63;;;24.41;48.56
63088;BME280;49173;43.164;27.786;2023-09-19T10:13:20;100686.31;;;24.51;49.43
63088;BME280;49173;43.164;27.786;2023-09-19T10:15:54;100678.28;;;24.58;48.52
63088;BME280;49173;43.164;27.786;2023-09-19T10:18:28;100681.03;;;24.58;47.91
63088;BME280;49173;43.164;27.786;2023-09-19T10:21:02;100683.94;;;24.56;46.90
63088;BME280;49173;43.164;27.786;2023-09-19T10:23:37;100666.44;;;24.57;46.72
63088;BME280;49173;43.164;27.786;2023-09-19T10:26:08;100680.84;;;24.59;47.45
63088;BME280;49173;43.164;27.786;2023-09-19T10:28:40;100673.84;;;24.65;47.81
63088;BME280;49173;43.164;27.786;2023-09-19T10:31:10;100682.25;;;24.63;47.60
63088;BME280;49173;43.164;27.786;2023-09-19T10:33:41;100666.97;;;24.61;47.40
63088;BME280;49173;43.164;27.786;2023-09-19T10:36:14;100668.00;;;24.60;47.95
63088;BME280;49173;43.164;27.786;2023-09-19T10:39:06;100672.47;;;24.61;48.40
63088;BME280;49173;43.164;27.786;2023-09-19T10:41:37;100676.94;;;24.62;49.39
63088;BME280;49173;43.164;27.786;2023-09-19T10:44:05;100671.81;;;24.67;48.90
63088;BME280;49173;43.164;27.786;2023-09-19T10:46:37;100670.59;;;24.70;48.65
63088;BME280;49173;43.164;27.786;2023-09-19T10:49:05;100666.31;;;24.75;49.19
63088;BME280;49173;43.164;27.786;2023-09-19T10:51:42;100661.16;;;24.72;48.99
63088;BME280;49173;43.164;27.786;2023-09-19T10:54:16;100658.22;;;24.65;49.67
63088;BME280;49173;43.164;27.786;2023-09-19T10:56:53;100654.31;;;24.68;48.99
63088;BME280;49173;43.164;27.786;2023-09-19T10:59:25;100650.72;;;24.76;47.29
63088;BME280;49173;43.164;27.786;2023-09-19T11:02:18;100647.78;;;24.85;48.75
63088;BME280;49173;43.164;27.786;2023-09-19T11:04:48;100651.75;;;24.91;47.79
63088;BME280;49173;43.164;27.786;2023-09-19T11:07:18;100650.53;;;24.93;46.59
63088;BME280;49173;43.164;27.786;2023-09-19T11:15:09;100636.34;;;25.06;47.94
63088;BME280;49173;43.164;27.786;2023-09-19T11:17:40;100635.47;;;25.14;46.86
63088;BME280;49173;43.164;27.786;2023-09-19T11:30:45;100624.47;;;25.38;48.85
63088;BME280;49173;43.164;27.786;2023-09-19T11:36:18;100623.44;;;25.47;47.83
63088;BME280;49173;43.164;27.786;2023-09-19T11:41:40;100626.34;;;25.54;47.69
63088;BME280;49173;43.164;27.786;2023-09-19T11:46:55;100622.75;;;25.45;47.59
63088;BME280;49173;43.164;27.786;2023-09-19T11:49:31;100619.31;;;25.43;47.90
63088;BME280;49173;43.164;27.786;2023-09-19T11:52:08;100609.16;;;25.44;48.39
63088;BME280;49173;43.164;27.786;2023-09-19T11:54:35;100609.53;;;25.41;48.62
63088;BME280;49173;43.164;27.786;2023-09-19T11:57:12;100608.66;;;25.40;48.62
63088;BME280;49173;43.164;27.786;2023-09-19T11:59:49;100605.94;;;25.40;48.01
63088;BME280;49173;43.164;27.786;2023-09-19T12:02:38;100606.09;;;25.47;48.25
63088;BME280;49173;43.164;27.786;2023-09-19T12:05:09;100611.06;;;25.52;49.07
63088;BME280;49173;43.164;27.786;2023-09-19T12:07:45;100601.09;;;25.59;48.46
63088;BME280;49173;43.164;27.786;2023-09-19T12:10:16;100595.19;;;25.70;49.60
63088;BME280;49173;43.164;27.786;2023-09-19T12:12:49;100594.84;;;25.81;50.33
63088;BME280;49173;43.164;27.786;2023-09-19T12:15:30;100590.69;;;25.85;49.60
63088;BME280;49173;43.164;27.786;2023-09-19T12:18:07;100588.94;;;25.92;49.14
63088;BME280;49173;43.164;27.786;2023-09-19T12:20:46;100590.50;;;25.95;48.48
63088;BME280;49173;43.164;27.786;2023-09-19T12:23:19;100591.84;;;25.99;48.47
63088;BME280;49173;43.164;27.786;2023-09-19T12:25:51;100594.78;;;25.97;49.13
63088;BME280;49173;43.164;27.786;2023-09-19T12:28:20;100587.75;;;25.95;49.91
63088;BME280;49173;43.164;27.786;2023-09-19T12:30:55;100586.75;;;25.88;49.10
63088;BME280;49173;43.164;27.786;2023-09-19T12:33:26;100582.59;;;25.92;48.94
63088;BME280;49173;43.164;27.786;2023-09-19T12:35:55;100590.13;;;25.98;48.90
63088;BME280;49173;43.164;27.786;2023-09-19T12:38:30;100583.78;;;25.97;48.90
63088;BME280;49173;43.164;27.786;2023-09-19T12:41:05;100580.31;;;26.04;48.62
63088;BME280;49173;43.164;27.786;2023-09-19T12:43:38;100574.94;;;26.10;48.65
63088;BME280;49173;43.164;27.786;2023-09-19T12:46:06;100585.78;;;26.12;47.92
63088;BME280;49173;43.164;27.786;2023-09-19T12:48:38;100576.00;;;26.09;47.80
63088;BME280;49173;43.164;27.786;2023-09-19T12:51:13;100579.66;;;26.01;47.95
63088;BME280;49173;43.164;27.786;2023-09-19T12:53:46;100571.25;;;25.95;48.19
63088;BME280;49173;43.164;27.786;2023-09-19T12:56:21;100563.00;;;25.95;47.62
63088;BME280;49173;43.164;27.786;2023-09-19T12:59:01;100564.72;;;25.96;47.37
63088;BME280;49173;43.164;27.786;2023-09-19T13:01:31;100566.09;;;25.92;47.71
63088;BME280;49173;43.164;27.786;2023-09-19T13:04:20;100568.00;;;25.91;48.18
63088;BME280;49173;43.164;27.786;2023-09-19T13:07:00;100574.50;;;25.98;47.86
63088;BME280;49173;43.164;27.786;2023-09-19T13:09:30;100568.47;;;26.03;48.12
63088;BME280;49173;43.164;27.786;2023-09-19T13:12:46;100570.69;;;26.08;47.79
63088;BME280;49173;43.164;27.786;2023-09-19T13:15:13;100561.19;;;26.10;47.50
63088;BME280;49173;43.164;27.786;2023-09-19T13:17:47;100560.53;;;26.08;46.86
63088;BME280;49173;43.164;27.786;2023-09-19T13:20:25;100568.31;;;25.96;46.95
63088;BME280;49173;43.164;27.786;2023-09-19T13:23:00;100561.28;;;25.94;47.22
63088;BME280;49173;43.164;27.786;2023-09-19T13:25:34;100556.81;;;25.93;46.79
63088;BME280;49173;43.164;27.786;2023-09-19T13:28:05;100559.56;;;25.93;47.08
63088;BME280;49173;43.164;27.786;2023-09-19T13:30:37;100569.88;;;25.91;47.88